Estación municipal de Seva (Osona, P.N. del Montseny)

Consulta los datos en tiempo real de la estación municipal de Seva





Hora UTC 04:35
Temperatura 19.1 ºC
Suelo 15 cm 17.1 ºC
Humedad 80.3 %
Presión 1024.8 hPa
Pluja 0.0 mm
Velocidad viento 4.5 km/h
Dirección viento E
Radiación solar 0.1 W/m²

Webcam

Datos diarios 2026-09-05



Hora UTC (invierno +1h; verano +2h)
Temperatura (ºC) Humedad (%) Presión (hPa) Velocidad viento (km/h) Precipitación (mm) Radiación solar (W/m²)
Hora UTC Aire Suelo 15 cm Humedad Presión Vel. Dir. Vel. Max Dir. Intent. máx 5 min. Rad. Sol.
00:05 21.3 19.3 76.2 1024.9 1.4 NE 1.4 ENE 0.0 0.1
00:10 21.2 19.2 76.4 1024.9 2.2 ENE 3.5 NE 0.0 0.1
00:15 21.1 19.2 76.8 1024.9 2.9 NE 4.2 NE 0.0 0.1
00:20 21.0 19.1 76.9 1024.9 2.9 ENE 3.9 E 0.0 0.1
00:25 20.9 19.1 76.9 1024.9 4.4 ENE 4.9 E 0.0 0.0
00:30 20.8 19.0 77.4 1024.9 3.5 E 4.2 E 0.0 0.0
00:35 20.8 18.9 77.9 1024.9 4.2 E 4.9 E 0.0 0.1
00:40 20.7 18.8 77.8 1024.9 4.5 E 6.0 E 0.0 0.1
00:45 20.7 18.8 78.0 1024.8 5.7 E 7.4 E 0.0 0.0
00:50 20.8 18.8 77.6 1024.8 5.5 ENE 7.1 E 0.0 0.1
00:55 20.8 18.8 77.4 1024.8 4.3 E 5.6 E 0.0 0.0
01:00 20.7 18.7 77.9 1024.7 3.7 E 4.6 ENE 0.0 0.1
01:05 20.6 18.6 78.3 1024.7 3.1 E 4.2 E 0.0 0.1
01:10 20.6 18.6 78.7 1024.7 3.2 E 4.6 E 0.0 0.0
01:15 20.6 18.7 78.6 1024.7 3.5 E 4.9 E 0.0 0.0
01:20 20.6 18.6 78.5 1024.8 1.1 E 3.2 E 0.0 0.1
01:25 20.4 18.5 79.0 1024.8 1.6 E 2.8 ESE 0.0 0.1
01:30 20.4 18.4 79.4 1024.8 0.9 ESE 3.5 ENE 0.0 0.1
01:35 20.3 18.2 80.0 1024.8 2.6 ENE 5.6 ENE 0.0 0.1
01:40 20.3 18.2 80.0 1024.8 3.0 ENE 3.9 E 0.0 0.0
01:45 20.3 18.2 80.0 1024.7 4.1 NE 5.6 NE 0.0 0.1
01:50 20.3 18.3 79.9 1024.7 5.0 ENE 6.4 ENE 0.0 0.0
01:55 20.3 18.3 79.8 1024.7 4.6 ENE 5.6 ENE 0.0 0.0
02:00 20.2 18.3 79.8 1024.7 4.6 ENE 5.6 ENE 0.0 0.0
02:05 20.2 18.3 79.5 1024.8 5.5 ENE 6.4 ENE 0.0 0.0
02:10 20.2 18.3 79.4 1024.8 3.9 E 5.3 E 0.0 0.1
02:15 20.3 18.2 79.2 1024.8 3.9 E 5.3 ENE 0.0 0.1
02:20 20.2 18.2 79.2 1024.7 5.6 E 7.4 ENE 0.0 0.1
02:25 20.3 18.3 78.6 1024.7 5.9 E 7.1 E 0.0 0.0
02:30 20.2 18.3 78.7 1024.7 5.0 E 6.7 ENE 0.0 0.1
02:35 20.3 18.2 78.7 1024.7 3.5 E 4.9 ENE 0.0 0.1
02:40 20.2 18.2 78.7 1024.7 3.5 ENE 3.9 ENE 0.0 0.1
02:45 20.2 18.1 78.7 1024.6 2.0 E 4.6 ENE 0.0 0.1
02:50 20.0 18.1 79.2 1024.7 0.1 ENE 1.8 ENE 0.0 0.0
02:55 19.9 18.0 80.1 1024.7 2.2 E 4.9 ENE 0.0 0.0
03:00 19.8 17.8 80.1 1024.7 2.6 N 5.6 NNW 0.0 0.1
03:05 19.8 17.7 80.7 1024.7 1.9 ESE 3.5 ESE 0.0 0.1
03:10 19.7 17.6 80.9 1024.7 1.8 WNW 5.3 WNW 0.0 0.1
03:15 19.8 17.5 80.2 1024.7 1.4 SE 2.1 SSE 0.0 0.1
03:20 19.7 17.4 80.0 1024.8 0.2 ESE 2.8 ESE 0.0 0.1
03:25 19.6 17.4 80.9 1024.8 2.2 ESE 3.9 ESE 0.0 0.1
03:30 19.5 17.4 81.3 1024.8 0.0 NNE 0.0 ESE 0.0 0.1
03:35 19.4 17.3 81.4 1024.8 0.9 ESE 2.5 ESE 0.0 0.1
03:40 19.4 17.3 81.6 1024.8 1.1 E 2.8 E 0.0 0.1
03:45 19.4 17.4 80.9 1024.8 2.5 E 3.2 E 0.0 0.0
03:50 19.3 17.4 81.0 1024.8 3.2 E 4.6 E 0.0 0.0
03:55 19.2 17.3 81.0 1024.8 3.0 ENE 4.2 NE 0.0 0.1
04:00 19.1 17.2 81.6 1024.8 1.2 ENE 3.2 NE 0.0 0.1
04:05 19.0 17.1 82.7 1024.8 0.6 E 2.8 ESE 0.0 0.1
04:10 19.0 17.1 82.4 1024.8 2.3 ESE 3.9 ESE 0.0 0.1
04:15 19.1 17.1 81.7 1024.7 4.0 E 5.6 E 0.0 0.1
04:20 19.0 17.1 81.0 1024.7 4.1 E 5.6 E 0.0 0.1
04:25 19.0 17.1 80.8 1024.7 4.0 E 5.6 ENE 0.0 0.1
04:30 19.1 17.1 80.5 1024.8 4.0 E 4.6 E 0.0 0.0
04:35 19.1 17.1 80.3 1024.8 4.5 E 5.6 E 0.0 0.1
Máxima 21.3 19.3 82.7 1024.9 5.9 E 7.4 ENE 0.0 0.1
Mínima 19.0 17.1 76.2 1024.6
Total 0.0